createdAt,value
2018-09-21T00:01:29.079Z,13.63
2018-09-21T00:04:02.670Z,13.77
2018-09-21T00:06:30.767Z,12.40
2018-09-21T00:08:58.862Z,12.90
2018-09-21T00:11:26.953Z,14.50
2018-09-21T00:13:55.038Z,14.40
2018-09-21T00:16:23.134Z,13.40
2018-09-21T00:18:51.222Z,13.30
2018-09-21T00:21:19.322Z,16.20
2018-09-21T00:23:47.408Z,15.43
2018-09-21T00:26:15.499Z,13.60
2018-09-21T00:28:43.587Z,14.35
2018-09-21T00:31:11.697Z,14.60
2018-09-21T00:33:39.773Z,15.50
2018-09-21T00:36:07.875Z,14.30
2018-09-21T00:38:35.961Z,13.90
2018-09-21T00:41:04.055Z,13.60
2018-09-21T00:43:32.141Z,13.80
2018-09-21T00:46:00.249Z,16.40
2018-09-21T00:48:28.334Z,14.93
2018-09-21T00:50:56.422Z,14.70
2018-09-21T00:53:24.521Z,18.43
2018-09-21T00:55:52.662Z,14.40
2018-09-21T00:58:20.742Z,14.47
2018-09-21T01:00:48.959Z,15.10
2018-09-21T01:03:17.042Z,15.00
2018-09-21T01:05:45.133Z,14.40
2018-09-21T01:08:13.226Z,14.73
2018-09-21T01:10:41.314Z,14.47
2018-09-21T01:13:09.410Z,14.07
2018-09-21T01:15:37.499Z,15.20
2018-09-21T01:18:05.594Z,18.60
2018-09-21T01:20:33.874Z,17.57
2018-09-21T01:23:01.993Z,18.97
2018-09-21T01:25:30.081Z,13.90
2018-09-21T01:27:58.183Z,14.63
2018-09-21T01:30:26.270Z,13.60
2018-09-21T01:32:54.396Z,14.07
2018-09-21T01:35:22.470Z,14.13
2018-09-21T01:37:50.571Z,14.00
2018-09-21T01:40:18.659Z,13.90
2018-09-21T01:42:46.754Z,12.70
2018-09-21T01:45:14.902Z,14.67
2018-09-21T01:47:43.061Z,14.80
2018-09-21T01:50:11.159Z,14.60
2018-09-21T01:52:39.246Z,14.20
2018-09-21T01:55:07.334Z,13.27
2018-09-21T01:57:35.445Z,14.70
2018-09-21T02:00:03.898Z,13.57
2018-09-21T02:02:31.986Z,15.37
2018-09-21T02:05:00.066Z,14.97
2018-09-21T02:07:28.158Z,14.90
2018-09-21T02:09:56.253Z,15.03
2018-09-21T02:12:24.351Z,15.37
2018-09-21T02:14:52.566Z,14.77
2018-09-21T02:17:20.656Z,14.67
2018-09-21T02:19:49.767Z,13.73
2018-09-21T02:22:17.850Z,14.50
2018-09-21T02:24:45.919Z,15.90
2018-09-21T02:27:14.005Z,14.27
2018-09-21T02:29:42.302Z,15.03
2018-09-21T02:32:10.396Z,14.77
2018-09-21T02:34:38.486Z,15.23
2018-09-21T02:37:06.579Z,15.63
2018-09-21T02:39:34.657Z,16.60
2018-09-21T02:42:02.761Z,16.17
2018-09-21T02:44:30.851Z,14.97
2018-09-21T02:46:58.930Z,15.07
2018-09-21T02:49:27.046Z,15.30
2018-09-21T02:51:55.142Z,15.03
2018-09-21T02:54:23.230Z,14.67
2018-09-21T02:56:51.306Z,15.73
2018-09-21T02:59:19.410Z,15.60
2018-09-21T03:01:47.496Z,14.40
2018-09-21T03:04:15.587Z,14.30
2018-09-21T03:06:43.662Z,15.83
2018-09-21T03:09:11.889Z,14.63
2018-09-21T03:11:39.966Z,16.10
2018-09-21T03:14:08.230Z,14.67
2018-09-21T03:16:36.319Z,14.17
2018-09-21T03:19:04.416Z,14.23
2018-09-21T03:21:32.497Z,19.20
2018-09-21T03:24:00.589Z,16.30
2018-09-21T03:26:28.686Z,17.07
2018-09-21T03:28:56.954Z,14.43
2018-09-21T03:31:25.034Z,14.40
2018-09-21T03:33:53.123Z,15.23
2018-09-21T03:36:21.374Z,13.47
2018-09-21T03:38:49.466Z,16.10
2018-09-21T03:41:17.542Z,13.97
2018-09-21T03:43:45.846Z,17.23
2018-09-21T03:46:13.930Z,17.00
2018-09-21T03:48:42.133Z,14.13
2018-09-21T03:51:10.216Z,14.13
2018-09-21T03:53:38.299Z,16.30
2018-09-21T03:56:06.377Z,14.40
2018-09-21T03:58:34.458Z,15.50
2018-09-21T04:01:02.556Z,14.83
2018-09-21T04:03:30.630Z,15.73
2018-09-21T04:05:58.710Z,14.03
2018-09-21T04:08:26.795Z,16.57
2018-09-21T04:10:54.883Z,15.77
2018-09-21T04:13:22.967Z,13.83
2018-09-21T04:15:51.050Z,13.57
2018-09-21T04:18:19.138Z,14.57
2018-09-21T04:20:47.226Z,14.70
2018-09-21T04:23:15.325Z,16.80
2018-09-21T04:25:43.398Z,14.73
2018-09-21T04:28:11.496Z,14.33
2018-09-21T04:30:39.570Z,14.53
2018-09-21T04:33:08.918Z,14.63
2018-09-21T04:35:37.010Z,15.13
2018-09-21T04:38:05.122Z,13.90
2018-09-21T04:40:33.216Z,13.20
2018-09-21T04:43:01.293Z,13.57
2018-09-21T04:45:29.398Z,13.37
2018-09-21T04:47:57.487Z,14.60
2018-09-21T04:50:25.578Z,13.60
2018-09-21T04:52:53.654Z,15.00
2018-09-21T04:55:21.739Z,14.43
2018-09-21T04:57:49.827Z,14.00
2018-09-21T05:00:17.922Z,14.77
2018-09-21T05:02:45.994Z,13.63
2018-09-21T05:05:14.094Z,14.33
2018-09-21T05:07:42.167Z,14.13
2018-09-21T05:10:10.275Z,13.73
2018-09-21T05:12:38.666Z,14.50
2018-09-21T05:15:07.079Z,20.33
2018-09-21T05:17:35.174Z,14.55
2018-09-21T05:20:03.303Z,13.60
2018-09-21T05:22:31.386Z,15.30
2018-09-21T05:24:59.478Z,13.60
2018-09-21T05:27:27.581Z,13.20
2018-09-21T05:29:55.657Z,13.65
2018-09-21T05:32:23.739Z,14.67
2018-09-21T05:34:51.866Z,13.17
2018-09-21T05:37:19.918Z,14.77
2018-09-21T05:39:48.006Z,13.60
2018-09-21T05:42:16.090Z,13.50
2018-09-21T05:44:44.182Z,13.20
2018-09-21T05:47:12.267Z,13.37
2018-09-21T05:49:40.362Z,14.70
2018-09-21T05:52:08.734Z,14.10
2018-09-21T05:54:36.830Z,13.00
2018-09-21T05:57:04.918Z,13.40
2018-09-21T05:59:33.014Z,13.70
2018-09-21T06:02:01.131Z,13.80
2018-09-21T06:04:29.210Z,13.10
2018-09-21T06:09:24.730Z,12.50
2018-09-21T06:11:53.622Z,14.60
2018-09-21T06:14:21.713Z,12.60
2018-09-21T06:16:49.803Z,13.40
2018-09-21T06:31:34.986Z,14.23
2018-09-21T06:34:03.087Z,12.03
2018-09-21T06:36:31.167Z,12.70
2018-09-21T06:38:59.263Z,12.77
2018-09-21T06:41:27.351Z,12.00
2018-09-21T06:43:55.443Z,12.97
2018-09-21T06:46:23.538Z,14.20
2018-09-21T06:48:51.618Z,12.30
2018-09-21T06:51:19.716Z,15.97
2018-09-21T06:53:47.791Z,11.60
2018-09-21T06:56:15.882Z,11.93
2018-09-21T06:58:43.958Z,12.15
2018-09-21T07:01:12.058Z,12.30
2018-09-21T07:03:40.142Z,13.15
2018-09-21T07:06:08.410Z,12.40
2018-09-21T07:08:36.499Z,11.20
2018-09-21T07:11:04.594Z,10.80
2018-09-21T07:13:32.714Z,12.10
2018-09-21T07:16:00.850Z,12.00
2018-09-21T07:18:28.910Z,11.00
2018-09-21T07:20:57.014Z,11.40
2018-09-21T07:23:25.098Z,11.60
2018-09-21T07:25:53.183Z,9.80
2018-09-21T07:28:21.266Z,10.93
2018-09-21T07:30:49.404Z,10.20
2018-09-21T07:33:17.442Z,10.40
2018-09-21T07:35:45.550Z,11.43
2018-09-21T07:38:13.630Z,9.50
2018-09-21T07:40:41.715Z,9.87
2018-09-21T07:43:10.064Z,9.40
2018-09-21T07:45:38.153Z,9.87
2018-09-21T07:48:06.238Z,8.47
2018-09-21T07:50:34.316Z,8.33
2018-09-21T07:53:02.405Z,8.20
2018-09-21T07:55:30.714Z,8.87
2018-09-21T07:57:58.797Z,7.30
2018-09-21T08:00:26.882Z,6.93
2018-09-21T08:02:54.954Z,7.13
2018-09-21T08:05:27.561Z,8.50
2018-09-21T08:07:55.890Z,6.57
2018-09-21T08:10:23.986Z,7.45
2018-09-21T08:12:52.084Z,8.93
2018-09-21T08:15:20.272Z,8.53
2018-09-21T08:17:48.350Z,6.60
2018-09-21T08:20:16.455Z,7.30
2018-09-21T08:22:44.539Z,9.00
2018-09-21T08:25:12.647Z,6.57
2018-09-21T08:27:40.766Z,6.43
2018-09-21T08:30:08.858Z,6.40
2018-09-21T08:32:36.935Z,7.33
2018-09-21T08:35:05.035Z,7.17
2018-09-21T08:37:33.106Z,6.80
2018-09-21T08:40:01.187Z,6.80
2018-09-21T08:42:29.282Z,8.63
2018-09-21T08:44:57.374Z,8.33
2018-09-21T08:47:25.454Z,8.13
2018-09-21T08:49:53.734Z,10.57
2018-09-21T08:52:21.835Z,7.63
2018-09-21T08:54:50.258Z,9.90
2018-09-21T08:57:18.365Z,6.60
2018-09-21T08:59:46.446Z,6.20
2018-09-21T09:02:14.907Z,7.17
2018-09-21T09:04:42.982Z,6.93
2018-09-21T09:07:11.094Z,8.50
2018-09-21T09:09:39.166Z,8.33
2018-09-21T09:12:07.259Z,8.40
2018-09-21T09:14:35.348Z,6.70
2018-09-21T09:17:03.425Z,6.43
2018-09-21T09:19:31.513Z,9.27
2018-09-21T09:21:59.616Z,7.03
2018-09-21T09:24:27.704Z,7.07
2018-09-21T09:26:55.770Z,7.20
2018-09-21T09:29:23.858Z,10.93
2018-09-21T09:31:51.951Z,8.33
2018-09-21T09:34:20.028Z,7.40
2018-09-21T09:36:48.158Z,9.30
2018-09-21T09:39:16.186Z,8.00
2018-09-21T09:41:44.269Z,7.50
2018-09-21T09:44:12.347Z,7.50
2018-09-21T09:46:40.438Z,7.80
2018-09-21T09:49:08.562Z,12.33
2018-09-21T09:51:36.614Z,6.67
2018-09-21T09:54:04.766Z,6.30
2018-09-21T09:56:32.846Z,6.43
2018-09-21T09:59:01.111Z,7.00
2018-09-21T10:01:29.203Z,4.93
2018-09-21T10:03:57.317Z,6.27
2018-09-21T10:06:25.379Z,5.33
2018-09-21T10:08:53.446Z,7.73
2018-09-21T10:11:21.550Z,5.27
2018-09-21T10:13:49.644Z,6.17
2018-09-21T10:16:17.755Z,6.17
2018-09-21T10:18:45.834Z,4.83
2018-09-21T10:21:13.919Z,6.07
2018-09-21T10:23:42.338Z,7.60
2018-09-21T10:26:10.418Z,5.73
2018-09-21T10:28:38.646Z,6.13
2018-09-21T10:31:06.612Z,6.27
2018-09-21T10:33:34.717Z,6.43
2018-09-21T10:36:02.788Z,5.60
2018-09-21T10:38:30.874Z,5.30
2018-09-21T10:40:58.965Z,5.67
2018-09-21T10:43:27.055Z,4.40
2018-09-21T10:45:55.154Z,5.00
2018-09-21T10:48:23.231Z,5.40
2018-09-21T10:50:51.594Z,5.67
2018-09-21T10:53:19.670Z,15.77
2018-09-21T10:55:47.754Z,6.30
2018-09-21T10:58:15.850Z,5.10
2018-09-21T11:00:43.943Z,5.90
2018-09-21T11:03:12.023Z,4.73
2018-09-21T11:05:40.116Z,5.03
2018-09-21T11:08:08.208Z,5.53
2018-09-21T11:10:36.288Z,4.97
2018-09-21T11:13:04.441Z,5.33
2018-09-21T11:15:32.474Z,4.80
2018-09-21T11:18:00.574Z,5.33
2018-09-21T11:20:28.850Z,4.63
2018-09-21T11:22:56.937Z,3.93
2018-09-21T11:25:25.015Z,4.87
2018-09-21T11:27:53.090Z,3.53
2018-09-21T11:30:21.162Z,5.87
2018-09-21T11:32:49.246Z,4.00
2018-09-21T11:35:17.402Z,3.93
2018-09-21T11:37:45.543Z,3.77
2018-09-21T11:40:13.650Z,4.10
2018-09-21T11:42:41.754Z,4.37
2018-09-21T11:45:09.830Z,4.50
2018-09-21T11:47:37.966Z,7.63
2018-09-21T11:50:06.014Z,4.93
2018-09-21T11:52:34.106Z,4.20
2018-09-21T11:55:02.191Z,4.37
2018-09-21T11:57:30.262Z,3.80
2018-09-21T11:59:58.337Z,3.90
2018-09-21T12:02:26.418Z,5.53
2018-09-21T12:04:54.539Z,4.20
2018-09-21T12:07:22.606Z,4.90
2018-09-21T12:09:50.690Z,4.73
2018-09-21T12:12:18.771Z,8.40
2018-09-21T12:14:46.854Z,4.07
2018-09-21T12:17:14.939Z,4.53
2018-09-21T12:19:43.019Z,3.73
2018-09-21T12:22:11.223Z,5.20
2018-09-21T12:24:39.198Z,3.70
2018-09-21T12:27:07.302Z,3.40
2018-09-21T12:29:35.378Z,4.57
2018-09-21T12:32:03.463Z,3.70
2018-09-21T12:34:31.546Z,4.00
2018-09-21T12:36:59.642Z,2.87
2018-09-21T12:39:27.737Z,4.63
2018-09-21T12:41:55.834Z,2.70
2018-09-21T12:44:23.943Z,8.67
2018-09-21T12:46:51.983Z,4.53
2018-09-21T12:49:20.087Z,3.83
2018-09-21T12:51:48.188Z,4.13
2018-09-21T12:54:16.278Z,4.30
2018-09-21T12:56:44.366Z,5.90
2018-09-21T12:59:12.438Z,5.30
2018-09-21T13:01:40.516Z,2.97
2018-09-21T13:04:08.615Z,3.77
2018-09-21T13:06:36.695Z,5.47
2018-09-21T13:09:06.486Z,3.00
2018-09-21T13:11:34.566Z,4.00
2018-09-21T13:14:02.652Z,5.97
2018-09-21T13:16:30.856Z,3.03
2018-09-21T13:18:58.946Z,4.53
2018-09-21T13:21:27.018Z,6.20
2018-09-21T13:23:55.110Z,4.10
2018-09-21T13:26:23.194Z,4.43
2018-09-21T13:28:51.282Z,3.57
2018-09-21T13:31:19.495Z,5.63
2018-09-21T13:33:47.574Z,4.43
2018-09-21T13:36:15.667Z,4.77
2018-09-21T13:38:43.754Z,4.37
2018-09-21T13:41:11.835Z,4.20
2018-09-21T13:43:39.956Z,3.80
2018-09-21T13:46:08.036Z,3.73
2018-09-21T13:48:36.128Z,3.63
2018-09-21T13:51:04.210Z,2.20
2018-09-21T13:53:32.298Z,1.57
2018-09-21T13:56:00.382Z,1.20
2018-09-21T13:58:28.486Z,1.23
2018-09-21T14:00:56.574Z,2.83
2018-09-21T14:03:24.666Z,1.10
2018-09-21T14:05:52.744Z,4.90
2018-09-21T14:08:20.854Z,0.80
2018-09-21T14:10:48.933Z,1.37
2018-09-21T14:13:17.031Z,0.90
2018-09-21T14:15:45.126Z,1.40
2018-09-21T14:18:13.216Z,1.63
2018-09-21T14:20:41.298Z,1.80
2018-09-21T14:23:09.372Z,1.60
2018-09-21T14:25:37.446Z,1.33
2018-09-21T14:28:05.561Z,2.00
2018-09-21T14:30:33.639Z,2.10
2018-09-21T14:33:01.715Z,3.00
2018-09-21T14:35:29.814Z,2.90
2018-09-21T14:37:57.880Z,4.20
2018-09-21T14:40:25.946Z,3.13
2018-09-21T14:42:54.038Z,4.20
2018-09-21T14:57:39.214Z,2.30
2018-09-21T15:00:07.382Z,2.03
2018-09-21T15:02:35.466Z,3.80
2018-09-21T15:05:03.546Z,1.90
2018-09-21T15:07:31.618Z,4.60
2018-09-21T15:14:54.558Z,3.70
2018-09-21T15:17:22.632Z,3.05
2018-09-21T15:19:50.903Z,2.53
2018-09-21T15:22:19.203Z,2.00
2018-09-21T15:24:47.148Z,3.30
2018-09-21T15:27:15.413Z,4.20
2018-09-21T15:29:43.494Z,4.85
2018-09-21T15:32:11.570Z,2.20
2018-09-21T15:34:39.662Z,2.85
2018-09-21T15:37:07.739Z,2.75
2018-09-21T15:59:15.475Z,3.20
2018-09-21T16:01:43.546Z,4.70
2018-09-21T16:04:11.630Z,5.47
2018-09-21T16:11:36.178Z,4.70
2018-09-21T16:14:04.357Z,4.60
2018-09-21T16:16:32.441Z,2.85
2018-09-21T16:19:00.814Z,7.05
2018-09-21T16:21:28.885Z,4.80
2018-09-21T16:23:56.980Z,4.70
2018-09-21T16:26:25.056Z,4.80
2018-09-21T16:28:53.167Z,3.00
2018-09-21T16:41:11.618Z,5.13
2018-09-21T16:43:39.707Z,4.40
2018-09-21T16:46:07.782Z,4.70
2018-09-21T17:10:43.198Z,4.60
2018-09-21T17:27:56.222Z,4.10
2018-09-21T17:30:24.302Z,4.40
2018-09-21T17:32:52.375Z,5.60
2018-09-21T17:35:20.466Z,3.80
2018-09-21T17:37:48.582Z,4.33
2018-09-21T17:42:44.026Z,4.00
2018-09-21T17:57:29.242Z,5.30
2018-09-21T18:09:48.727Z,6.55
2018-09-21T18:12:16.798Z,5.20
2018-09-21T18:14:45.170Z,4.50
2018-09-21T18:17:13.280Z,6.20
2018-09-21T18:19:41.742Z,3.60
2018-09-21T18:22:10.411Z,8.60
2018-09-21T18:24:38.498Z,4.10
2018-09-21T18:36:56.454Z,4.97
2018-09-21T18:39:24.579Z,5.73
2018-09-21T18:41:52.616Z,3.83
2018-09-21T18:44:20.711Z,5.83
2018-09-21T18:46:48.957Z,6.43
2018-09-21T18:49:17.054Z,5.63
2018-09-21T18:51:45.147Z,5.47
2018-09-21T18:54:13.581Z,3.00
2018-09-21T18:56:41.682Z,4.05
2018-09-21T18:59:10.122Z,3.57
2018-09-21T19:01:38.379Z,3.23
2018-09-21T19:04:06.503Z,3.60
2018-09-21T19:06:34.559Z,2.97
2018-09-21T19:09:02.669Z,5.17
2018-09-21T19:11:30.755Z,6.00
2018-09-21T19:13:58.843Z,3.10
2018-09-21T19:16:26.955Z,5.17
2018-09-21T19:18:55.611Z,6.20
2018-09-21T19:21:23.686Z,3.53
2018-09-21T19:23:51.771Z,4.60
2018-09-21T19:26:19.862Z,4.00
2018-09-21T19:28:47.938Z,5.33
2018-09-21T19:31:16.018Z,5.35
2018-09-21T19:33:44.110Z,3.10
2018-09-21T19:36:12.325Z,4.30
2018-09-21T19:38:40.450Z,5.70
2018-09-21T19:41:08.500Z,4.60
2018-09-21T19:43:36.582Z,6.07
2018-09-21T19:46:04.670Z,3.70
2018-09-21T19:48:32.749Z,4.43
2018-09-21T19:51:01.026Z,5.57
2018-09-21T19:53:29.111Z,2.80
2018-09-21T19:55:57.194Z,4.40
2018-09-21T19:58:25.272Z,5.13
2018-09-21T20:00:53.358Z,4.10
2018-09-21T20:03:21.906Z,3.40
2018-09-21T20:05:50.006Z,3.77
2018-09-21T20:08:18.082Z,3.83
2018-09-21T20:10:46.178Z,4.30
2018-09-21T20:13:14.258Z,3.30
2018-09-21T20:15:42.352Z,2.27
2018-09-21T20:18:10.435Z,2.70
2018-09-21T20:20:38.515Z,4.03
2018-09-21T20:23:06.586Z,2.93
2018-09-21T20:25:34.670Z,2.70
2018-09-21T20:28:02.750Z,3.10
2018-09-21T20:30:36.333Z,3.40
2018-09-21T20:33:09.758Z,2.33
2018-09-21T20:35:37.915Z,3.63
2018-09-21T20:38:05.937Z,4.30
2018-09-21T20:40:34.018Z,4.77
2018-09-21T20:43:02.090Z,2.33
2018-09-21T20:45:30.176Z,4.13
2018-09-21T20:47:58.257Z,3.03
2018-09-21T20:50:26.362Z,2.13
2018-09-21T20:52:54.480Z,2.73
2018-09-21T20:55:22.552Z,2.80
2018-09-21T20:57:50.638Z,3.27
2018-09-21T21:00:18.734Z,2.83
2018-09-21T21:02:46.983Z,2.20
2018-09-21T21:05:15.130Z,3.50
2018-09-21T21:07:43.198Z,2.13
2018-09-21T21:10:11.279Z,2.40
2018-09-21T21:12:39.357Z,2.40
2018-09-21T21:15:07.530Z,2.43
2018-09-21T21:17:35.606Z,1.83
2018-09-21T21:20:03.714Z,3.80
2018-09-21T21:22:31.793Z,8.13
2018-09-21T21:25:00.118Z,2.67
2018-09-21T21:27:28.228Z,2.90
2018-09-21T21:29:56.301Z,3.23
2018-09-21T21:32:24.397Z,4.13
2018-09-21T21:34:52.470Z,1.70
2018-09-21T21:37:20.570Z,4.07
2018-09-21T21:39:48.639Z,5.60
2018-09-21T21:42:16.722Z,2.33
2018-09-21T21:44:44.806Z,4.20
2018-09-21T21:47:12.895Z,3.03
2018-09-21T21:49:40.966Z,2.57
2018-09-21T21:52:09.050Z,2.67
2018-09-21T21:54:37.143Z,1.73
2018-09-21T21:57:05.482Z,3.63
2018-09-21T21:59:33.558Z,2.30
2018-09-21T22:02:01.655Z,2.07
2018-09-21T22:04:29.726Z,2.80
2018-09-21T22:06:57.845Z,2.47
2018-09-21T22:09:25.927Z,5.70
2018-09-21T22:11:59.350Z,3.73
2018-09-21T22:14:27.434Z,4.33
2018-09-21T22:16:55.520Z,1.77
2018-09-21T22:19:23.594Z,2.43
2018-09-21T22:21:51.674Z,2.63
2018-09-21T22:24:19.742Z,2.07
2018-09-21T22:26:47.826Z,2.07
2018-09-21T22:29:15.899Z,3.10
2018-09-21T22:31:43.989Z,3.10
2018-09-21T22:34:12.071Z,1.47
2018-09-21T22:36:40.146Z,3.17
2018-09-21T22:39:08.689Z,2.80
2018-09-21T22:41:37.043Z,4.50
2018-09-21T22:44:05.090Z,3.93
2018-09-21T22:46:33.162Z,3.33
2018-09-21T22:49:02.310Z,2.23
2018-09-21T22:51:30.389Z,4.33
2018-09-21T22:53:58.494Z,3.53
2018-09-21T22:56:26.566Z,2.40
2018-09-21T22:58:54.642Z,2.97
2018-09-21T23:01:22.726Z,4.10
2018-09-21T23:03:50.805Z,2.70
2018-09-21T23:06:18.889Z,1.60
2018-09-21T23:08:46.970Z,2.80
2018-09-21T23:11:15.059Z,2.00
2018-09-21T23:13:43.138Z,6.20
2018-09-21T23:16:11.226Z,3.35
2018-09-21T23:18:39.310Z,3.25
2018-09-21T23:21:07.574Z,2.63
2018-09-21T23:23:35.658Z,2.45
2018-09-21T23:26:03.744Z,2.17
2018-09-21T23:28:31.829Z,3.53
2018-09-21T23:30:59.992Z,4.87
2018-09-21T23:33:28.074Z,3.30
2018-09-21T23:35:56.154Z,3.20
2018-09-21T23:38:24.245Z,4.10
2018-09-21T23:40:52.311Z,2.70
2018-09-21T23:43:20.382Z,4.13
2018-09-21T23:45:48.499Z,3.90
2018-09-21T23:48:16.578Z,2.80
2018-09-21T23:50:44.652Z,2.50
2018-09-21T23:53:12.730Z,3.80
2018-09-21T23:55:40.813Z,2.70
2018-09-21T23:58:08.996Z,4.33
